Bothnia — PBLG — position and weather

sailwx.info

Track history (hours):
 
Tides and Currents Weather Stations Pressure Air Temp Water Temp Dewpoint Dewpoint Depression Visibility Wind Speed Wind Dir Waves Ship Positions

Bothnia

Last reported at 2018-Jan-24 05:30 UTC. Time now 2018-Jan-24 05:54 UTC.
Position N 54°08' E 009°21'.

Length 82 m; draft 4.8 m.

Type: Cargo ship. MMSI: 244741000.

Date/timePositionNaut miles runAvg speedWind from/ knotsBaromVisibWave heightAir tempDewpointWater temp
2018-Jan-24 05:30N 54°08' E 009°21'4 8.5
2018-Jan-24 05:00N 54°04' E 009°19'4 8.2
2018-Jan-24 04:30N 54°00' E 009°18'4 8.6
2018-Jan-24 04:00N 53°57' E 009°14'4 6.8
2018-Jan-24 03:27N 53°54' E 009°09'0 0.0
2018-Jan-24 03:00N 53°54' E 009°09'0 0.0
2018-Jan-24 02:30N 53°54' E 009°09'0 0.0
2018-Jan-24 01:57N 53°54' E 009°09'0 0.0
2018-Jan-24 01:30N 53°54' E 009°09'1 1.1
2018-Jan-24 01:01N 53°54' E 009°09'1 1.2
2018-Jan-24 00:31N 53°53' E 009°08'2 4.9
2018-Jan-24 00:00N 53°53' E 009°04'4 7.9
2018-Jan-23 23:30N 53°51' E 008°58'4 7.8
2018-Jan-23 23:00N 53°50' E 008°51'4 7.0
2018-Jan-23 22:30N 53°51' E 008°45'3 6.1
2018-Jan-23 22:00N 53°53' E 008°42'3 5.9
2018-Jan-23 21:30N 53°56' E 008°40'4 6.9
2018-Jan-23 20:59N 53°58' E 008°34'4 8.0
2018-Jan-23 20:30N 53°58' E 008°28'4 7.7
2018-Jan-23 20:00N 53°59' E 008°22'5 9.9
2018-Jan-23 19:28N 53°59' E 008°13'7 9.9
2018-Jan-23 18:44N 53°57' E 008°01'2 8.7
2018-Jan-23 18:30N 53°55' E 007°60'611.3
2018-Jan-23 18:00N 53°51' E 008°07'611.9
2018-Jan-23 17:30N 53°46' E 008°11'612.1
2018-Jan-23 17:00N 53°42' E 008°20'510.9
2018-Jan-23 16:30N 53°38' E 008°26'5 9.9
2018-Jan-23 16:00N 53°35' E 008°32'4 7.7
2018-Jan-23 15:30N 53°31' E 008°32'4 8.3
2018-Jan-23 15:00N 53°27' E 008°29'4 8.5
2018-Jan-23 14:30N 53°23' E 008°30'3 5.3
2018-Jan-23 14:00N 53°20' E 008°30'0 0.0
2018-Jan-23 13:28N 53°20' E 008°30'0 0.0
2018-Jan-23 13:00N 53°20' E 008°30'0 0.0
2018-Jan-23 12:28N 53°20' E 008°30'0 0.0
2018-Jan-23 11:58N 53°20' E 008°30'0 0.0
2018-Jan-23 11:30N 53°20' E 008°30'0 0.0
2018-Jan-23 11:00N 53°20' E 008°30'0 0.0
2018-Jan-23 10:30N 53°20' E 008°30'0 0.0
2018-Jan-23 10:00N 53°20' E 008°30'0 0.0
2018-Jan-23 09:24N 53°20' E 008°30'0 0.0
2018-Jan-23 08:54N 53°20' E 008°30'0 0.0
2018-Jan-23 08:30N 53°20' E 008°30'0 0.0
2018-Jan-23 08:00N 53°20' E 008°30'0 0.0
2018-Jan-23 07:30N 53°20' E 008°30'0 0.0
2018-Jan-23 07:00N 53°20' E 008°30'0 0.0
2018-Jan-23 06:30N 53°20' E 008°30'0 0.0
2018-Jan-23 05:57N 53°20' E 008°30'0 0.0
2018-Jan-23 05:27N 53°20' E 008°30'0 0.0
2018-Jan-23 05:00N 53°20' E 008°30'0 0.0
2018-Jan-23 04:30N 53°20' E 008°30'0 0.0
2018-Jan-23 04:00N 53°20' E 008°30'0 0.0
2018-Jan-23 03:30N 53°20' E 008°30'0 0.0
2018-Jan-23 03:00N 53°20' E 008°30'0 0.0
2018-Jan-23 02:30N 53°20' E 008°30'0 0.0
2018-Jan-23 01:57N 53°20' E 008°30'0 0.0
2018-Jan-23 01:30N 53°20' E 008°30'0 0.0
2018-Jan-23 01:00N 53°20' E 008°30'0 0.0
2018-Jan-23 00:30N 53°20' E 008°30'0 0.0
2018-Jan-23 00:00N 53°20' E 008°30'0 0.0
2018-Jan-22 23:27N 53°20' E 008°30'0 0.0
2018-Jan-22 22:57N 53°20' E 008°30'0 0.0
2018-Jan-22 22:27N 53°20' E 008°30'0 0.0
2018-Jan-22 21:57N 53°20' E 008°30'0 0.0
2018-Jan-22 21:24N 53°20' E 008°30'0 0.0
2018-Jan-22 20:57N 53°20' E 008°30'0 0.0
2018-Jan-22 20:30N 53°20' E 008°30'0 0.0
2018-Jan-22 19:57N 53°20' E 008°30'0 0.0
2018-Jan-22 19:30N 53°20' E 008°30'0 0.0
2018-Jan-22 18:51N 53°20' E 008°30'0 0.0
2018-Jan-22 18:30N 53°20' E 008°30'0 0.0
2018-Jan-22 18:00N 53°20' E 008°30'0 0.0
2018-Jan-22 17:27N 53°20' E 008°30'0 0.0
2018-Jan-22 17:00N 53°20' E 008°30'0 0.0
2018-Jan-22 16:30N 53°20' E 008°30'0 0.0
2018-Jan-22 16:00N 53°20' E 008°30'0 0.0
2018-Jan-22 15:30N 53°20' E 008°30'0 0.0
2018-Jan-22 15:00N 53°20' E 008°30'0 0.0
2018-Jan-22 14:30N 53°20' E 008°30'0 0.0
2018-Jan-22 13:57N 53°20' E 008°30'0 0.0
2018-Jan-22 13:27N 53°20' E 008°30'0 0.0
2018-Jan-22 13:00N 53°20' E 008°30'0 0.0
2018-Jan-22 12:27N 53°20' E 008°30'0 0.0
2018-Jan-22 11:57N 53°20' E 008°30'0 0.0
2018-Jan-22 11:24N 53°20' E 008°30'0 0.0
2018-Jan-22 11:00N 53°20' E 008°30'0 0.0
2018-Jan-22 10:30N 53°20' E 008°30'0 0.0
2018-Jan-22 09:57N 53°20' E 008°30'0 0.0
2018-Jan-22 09:27N 53°20' E 008°30'0 0.0
2018-Jan-22 08:06N 53°20' E 008°30'0 0.0
2018-Jan-22 07:48N 53°20' E 008°30'0 0.0
2018-Jan-22 07:27N 53°20' E 008°30'0 0.0
2018-Jan-22 07:00N 53°20' E 008°30'0 0.0
2018-Jan-22 06:30N 53°20' E 008°30'0 0.0
2018-Jan-22 06:00N 53°20' E 008°30'0 0.0
2018-Jan-22 05:30N 53°20' E 008°30'0 0.0
2018-Jan-22 05:00N 53°20' E 008°30'0 0.0
2018-Jan-22 04:30N 53°20' E 008°30'0 0.0
2018-Jan-22 04:00N 53°20' E 008°30'0 0.0
2018-Jan-22 03:30N 53°20' E 008°30'0 0.0
2018-Jan-22 03:00N 53°20' E 008°30'0 0.0
2018-Jan-22 02:27N 53°20' E 008°30'0 0.0
2018-Jan-22 02:00N 53°20' E 008°30'0 0.0
2018-Jan-22 01:29N 53°20' E 008°30'0 0.0
2018-Jan-22 00:59N 53°20' E 008°30'0 0.0
2018-Jan-22 00:29N 53°20' E 008°30'0 0.0
2018-Jan-21 23:59N 53°20' E 008°30'0 0.0
2018-Jan-21 23:23N 53°20' E 008°30'0 0.0
2018-Jan-21 22:53N 53°20' E 008°30'0 0.0
2018-Jan-21 22:26N 53°20' E 008°30'0 0.0
2018-Jan-21 21:20N 53°20' E 008°30'0 0.0
2018-Jan-21 20:56N 53°20' E 008°30'0 0.0
2018-Jan-21 20:26N 53°20' E 008°30'0 0.0
2018-Jan-21 19:56N 53°20' E 008°30'0 0.0
2018-Jan-21 19:20N 53°20' E 008°30'0 0.0
2018-Jan-21 18:56N 53°20' E 008°30'0 0.0
2018-Jan-21 18:29N 53°20' E 008°30'0 0.0
2018-Jan-21 17:56N 53°20' E 008°30'0 0.0
2018-Jan-21 17:23N 53°20' E 008°30'0 0.0
2018-Jan-21 16:59N 53°20' E 008°30'0 0.0
2018-Jan-21 16:29N 53°20' E 008°30'0 0.0
2018-Jan-21 15:56N 53°20' E 008°30'0 0.0
2018-Jan-21 15:29N 53°20' E 008°30'0 0.0
2018-Jan-21 14:59N 53°20' E 008°30'0 0.0
2018-Jan-21 14:17N 53°20' E 008°30'0 0.0
2018-Jan-21 13:59N 53°20' E 008°30'0 0.0
2018-Jan-21 13:29N 53°20' E 008°30'0 0.0
2018-Jan-21 12:47N 53°20' E 008°30'0 0.0
2018-Jan-21 12:30N 53°20' E 008°30'2 3.9
2018-Jan-21 12:00N 53°22' E 008°30'510.3
2018-Jan-21 11:31N 53°27' E 008°29'5 9.7
2018-Jan-21 11:00N 53°32' E 008°34'5 9.9
2018-Jan-21 10:30N 53°36' E 008°30'4 7.6
2018-Jan-21 10:01N 53°39' E 008°25'4 8.9
2018-Jan-21 09:31N 53°42' E 008°20'5 9.5
2018-Jan-21 09:00N 53°44' E 008°13'4 8.9
2018-Jan-21 08:30N 53°48' E 008°08'4 8.1
2018-Jan-21 08:00N 53°50' E 008°03'100 8.2
2018-Jan-20 19:48N 53°32' E 005°18'410.3
2018-Jan-20 19:26N 53°30' E 005°12'510.5
2018-Jan-20 19:00N 53°29' E 005°05'510.7
2018-Jan-20 18:30N 53°27' E 004°56'145 9.0
2018-Jan-20 02:24N 51°35' E 002°24'511.1
2018-Jan-20 01:59N 51°31' E 002°19'510.6
2018-Jan-20 01:31N 51°27' E 002°15'510.4
2018-Jan-20 01:00N 51°22' E 002°10'510.2
2018-Jan-20 00:30N 51°18' E 002°07'5 9.8
2018-Jan-20 00:01N 51°14' E 002°02'5 9.5
2018-Jan-19 23:31N 51°11' E 001°56'4 8.7
2018-Jan-19 23:00N 51°08' E 001°51'4 7.9
2018-Jan-19 22:30N 51°05' E 001°46'4 7.5
2018-Jan-19 22:00N 51°03' E 001°42'3 7.0
2018-Jan-19 21:31N 51°00' E 001°38'63 7.9
2018-Jan-19 13:29N 50°24' E 000°16'5 9.7
2018-Jan-19 13:00N 50°23' E 000°09'5 9.9
2018-Jan-19 12:30N 50°21' E 000°02'510.4
2018-Jan-19 11:59N 50°20' W 000°06'  
Track history (hours):
 
Tides and Currents Weather Stations Pressure Air Temp Water Temp Dewpoint Dewpoint Depression Visibility Wind Speed Wind Dir Waves Ship Positions

Bothnia

Last reported at 2018-Jan-24 05:30 UTC. Time now 2018-Jan-24 05:54 UTC.
Position N 54°08' E 009°21'.

Length 82 m; draft 4.8 m.

Type: Cargo ship. MMSI: 244741000.

Date/timePositionNaut miles runAvg speedWind from/ knotsBaromVisibWave heightAir tempDewpointWater temp
2018-Jan-24 05:30N 54°08' E 009°21'4 8.5
2018-Jan-24 05:00N 54°04' E 009°19'4 8.2
2018-Jan-24 04:30N 54°00' E 009°18'4 8.6
2018-Jan-24 04:00N 53°57' E 009°14'4 6.8
2018-Jan-24 03:27N 53°54' E 009°09'0 0.0
2018-Jan-24 03:00N 53°54' E 009°09'0 0.0
2018-Jan-24 02:30N 53°54' E 009°09'0 0.0
2018-Jan-24 01:57N 53°54' E 009°09'0 0.0
2018-Jan-24 01:30N 53°54' E 009°09'1 1.1
2018-Jan-24 01:01N 53°54' E 009°09'1 1.2
2018-Jan-24 00:31N 53°53' E 009°08'2 4.9
2018-Jan-24 00:00N 53°53' E 009°04'4 7.9
2018-Jan-23 23:30N 53°51' E 008°58'4 7.8
2018-Jan-23 23:00N 53°50' E 008°51'4 7.0
2018-Jan-23 22:30N 53°51' E 008°45'3 6.1
2018-Jan-23 22:00N 53°53' E 008°42'3 5.9
2018-Jan-23 21:30N 53°56' E 008°40'4 6.9
2018-Jan-23 20:59N 53°58' E 008°34'4 8.0
2018-Jan-23 20:30N 53°58' E 008°28'4 7.7
2018-Jan-23 20:00N 53°59' E 008°22'5 9.9
2018-Jan-23 19:28N 53°59' E 008°13'7 9.9
2018-Jan-23 18:44N 53°57' E 008°01'2 8.7
2018-Jan-23 18:30N 53°55' E 007°60'611.3
2018-Jan-23 18:00N 53°51' E 008°07'611.9
2018-Jan-23 17:30N 53°46' E 008°11'612.1
2018-Jan-23 17:00N 53°42' E 008°20'510.9
2018-Jan-23 16:30N 53°38' E 008°26'5 9.9
2018-Jan-23 16:00N 53°35' E 008°32'4 7.7
2018-Jan-23 15:30N 53°31' E 008°32'4 8.3
2018-Jan-23 15:00N 53°27' E 008°29'4 8.5
2018-Jan-23 14:30N 53°23' E 008°30'3 5.3
2018-Jan-23 14:00N 53°20' E 008°30'0 0.0
2018-Jan-23 13:28N 53°20' E 008°30'0 0.0
2018-Jan-23 13:00N 53°20' E 008°30'0 0.0
2018-Jan-23 12:28N 53°20' E 008°30'0 0.0
2018-Jan-23 11:58N 53°20' E 008°30'0 0.0
2018-Jan-23 11:30N 53°20' E 008°30'0 0.0
2018-Jan-23 11:00N 53°20' E 008°30'0 0.0
2018-Jan-23 10:30N 53°20' E 008°30'0 0.0
2018-Jan-23 10:00N 53°20' E 008°30'0 0.0
2018-Jan-23 09:24N 53°20' E 008°30'0 0.0
2018-Jan-23 08:54N 53°20' E 008°30'0 0.0
2018-Jan-23 08:30N 53°20' E 008°30'0 0.0
2018-Jan-23 08:00N 53°20' E 008°30'0 0.0
2018-Jan-23 07:30N 53°20' E 008°30'0 0.0
2018-Jan-23 07:00N 53°20' E 008°30'0 0.0
2018-Jan-23 06:30N 53°20' E 008°30'0 0.0
2018-Jan-23 05:57N 53°20' E 008°30'0 0.0
2018-Jan-23 05:27N 53°20' E 008°30'0 0.0
2018-Jan-23 05:00N 53°20' E 008°30'0 0.0
2018-Jan-23 04:30N 53°20' E 008°30'0 0.0
2018-Jan-23 04:00N 53°20' E 008°30'0 0.0
2018-Jan-23 03:30N 53°20' E 008°30'0 0.0
2018-Jan-23 03:00N 53°20' E 008°30'0 0.0
2018-Jan-23 02:30N 53°20' E 008°30'0 0.0
2018-Jan-23 01:57N 53°20' E 008°30'0 0.0
2018-Jan-23 01:30N 53°20' E 008°30'0 0.0
2018-Jan-23 01:00N 53°20' E 008°30'0 0.0
2018-Jan-23 00:30N 53°20' E 008°30'0 0.0
2018-Jan-23 00:00N 53°20' E 008°30'0 0.0
2018-Jan-22 23:27N 53°20' E 008°30'0 0.0
2018-Jan-22 22:57N 53°20' E 008°30'0 0.0
2018-Jan-22 22:27N 53°20' E 008°30'0 0.0
2018-Jan-22 21:57N 53°20' E 008°30'0 0.0
2018-Jan-22 21:24N 53°20' E 008°30'0 0.0
2018-Jan-22 20:57N 53°20' E 008°30'0 0.0
2018-Jan-22 20:30N 53°20' E 008°30'0 0.0
2018-Jan-22 19:57N 53°20' E 008°30'0 0.0
2018-Jan-22 19:30N 53°20' E 008°30'0 0.0
2018-Jan-22 18:51N 53°20' E 008°30'0 0.0
2018-Jan-22 18:30N 53°20' E 008°30'0 0.0
2018-Jan-22 18:00N 53°20' E 008°30'0 0.0
2018-Jan-22 17:27N 53°20' E 008°30'0 0.0
2018-Jan-22 17:00N 53°20' E 008°30'0 0.0
2018-Jan-22 16:30N 53°20' E 008°30'0 0.0
2018-Jan-22 16:00N 53°20' E 008°30'0 0.0
2018-Jan-22 15:30N 53°20' E 008°30'0 0.0
2018-Jan-22 15:00N 53°20' E 008°30'0 0.0
2018-Jan-22 14:30N 53°20' E 008°30'0 0.0
2018-Jan-22 13:57N 53°20' E 008°30'0 0.0
2018-Jan-22 13:27N 53°20' E 008°30'0 0.0
2018-Jan-22 13:00N 53°20' E 008°30'0 0.0
2018-Jan-22 12:27N 53°20' E 008°30'0 0.0
2018-Jan-22 11:57N 53°20' E 008°30'0 0.0
2018-Jan-22 11:24N 53°20' E 008°30'0 0.0
2018-Jan-22 11:00N 53°20' E 008°30'0 0.0
2018-Jan-22 10:30N 53°20' E 008°30'0 0.0
2018-Jan-22 09:57N 53°20' E 008°30'0 0.0
2018-Jan-22 09:27N 53°20' E 008°30'0 0.0
2018-Jan-22 08:06N 53°20' E 008°30'0 0.0
2018-Jan-22 07:48N 53°20' E 008°30'0 0.0
2018-Jan-22 07:27N 53°20' E 008°30'0 0.0
2018-Jan-22 07:00N 53°20' E 008°30'0 0.0
2018-Jan-22 06:30N 53°20' E 008°30'0 0.0
2018-Jan-22 06:00N 53°20' E 008°30'0 0.0
2018-Jan-22 05:30N 53°20' E 008°30'0 0.0
2018-Jan-22 05:00N 53°20' E 008°30'0 0.0
2018-Jan-22 04:30N 53°20' E 008°30'0 0.0
2018-Jan-22 04:00N 53°20' E 008°30'0 0.0
2018-Jan-22 03:30N 53°20' E 008°30'0 0.0
2018-Jan-22 03:00N 53°20' E 008°30'0 0.0
2018-Jan-22 02:27N 53°20' E 008°30'0 0.0
2018-Jan-22 02:00N 53°20' E 008°30'0 0.0
2018-Jan-22 01:29N 53°20' E 008°30'0 0.0
2018-Jan-22 00:59N 53°20' E 008°30'0 0.0
2018-Jan-22 00:29N 53°20' E 008°30'0 0.0
2018-Jan-21 23:59N 53°20' E 008°30'0 0.0
2018-Jan-21 23:23N 53°20' E 008°30'0 0.0
2018-Jan-21 22:53N 53°20' E 008°30'0 0.0
2018-Jan-21 22:26N 53°20' E 008°30'0 0.0
2018-Jan-21 21:20N 53°20' E 008°30'0 0.0
2018-Jan-21 20:56N 53°20' E 008°30'0 0.0
2018-Jan-21 20:26N 53°20' E 008°30'0 0.0
2018-Jan-21 19:56N 53°20' E 008°30'0 0.0
2018-Jan-21 19:20N 53°20' E 008°30'0 0.0
2018-Jan-21 18:56N 53°20' E 008°30'0 0.0
2018-Jan-21 18:29N 53°20' E 008°30'0 0.0
2018-Jan-21 17:56N 53°20' E 008°30'0 0.0
2018-Jan-21 17:23N 53°20' E 008°30'0 0.0
2018-Jan-21 16:59N 53°20' E 008°30'0 0.0
2018-Jan-21 16:29N 53°20' E 008°30'0 0.0
2018-Jan-21 15:56N 53°20' E 008°30'0 0.0
2018-Jan-21 15:29N 53°20' E 008°30'0 0.0
2018-Jan-21 14:59N 53°20' E 008°30'0 0.0
2018-Jan-21 14:17N 53°20' E 008°30'0 0.0
2018-Jan-21 13:59N 53°20' E 008°30'0 0.0
2018-Jan-21 13:29N 53°20' E 008°30'0 0.0
2018-Jan-21 12:47N 53°20' E 008°30'0 0.0
2018-Jan-21 12:30N 53°20' E 008°30'2 3.9
2018-Jan-21 12:00N 53°22' E 008°30'510.3
2018-Jan-21 11:31N 53°27' E 008°29'5 9.7
2018-Jan-21 11:00N 53°32' E 008°34'5 9.9
2018-Jan-21 10:30N 53°36' E 008°30'4 7.6
2018-Jan-21 10:01N 53°39' E 008°25'4 8.9
2018-Jan-21 09:31N 53°42' E 008°20'5 9.5
2018-Jan-21 09:00N 53°44' E 008°13'4 8.9
2018-Jan-21 08:30N 53°48' E 008°08'4 8.1
2018-Jan-21 08:00N 53°50' E 008°03'100 8.2
2018-Jan-20 19:48N 53°32' E 005°18'410.3
2018-Jan-20 19:26N 53°30' E 005°12'510.5
2018-Jan-20 19:00N 53°29' E 005°05'510.7
2018-Jan-20 18:30N 53°27' E 004°56'145 9.0
2018-Jan-20 02:24N 51°35' E 002°24'511.1
2018-Jan-20 01:59N 51°31' E 002°19'510.6
2018-Jan-20 01:31N 51°27' E 002°15'510.4
2018-Jan-20 01:00N 51°22' E 002°10'510.2
2018-Jan-20 00:30N 51°18' E 002°07'5 9.8
2018-Jan-20 00:01N 51°14' E 002°02'5 9.5
2018-Jan-19 23:31N 51°11' E 001°56'4 8.7
2018-Jan-19 23:00N 51°08' E 001°51'4 7.9
2018-Jan-19 22:30N 51°05' E 001°46'4 7.5
2018-Jan-19 22:00N 51°03' E 001°42'3 7.0
2018-Jan-19 21:31N 51°00' E 001°38'63 7.9
2018-Jan-19 13:29N 50°24' E 000°16'5 9.7
2018-Jan-19 13:00N 50°23' E 000°09'5 9.9
2018-Jan-19 12:30N 50°21' E 000°02'510.4
2018-Jan-19 11:59N 50°20' W 000°06'  

Dump ship's entire track history